Nizhnekamsk, Russia
Current Conditions -  °F | °C
As of 7:00 AM on Monday 24 Nov 2014 (Local Time) from UWKE Reporting Station
Clear Clear  
Wind Chill: -10°   Ceiling: Unl
Heat Index:   Visibility: 6mi
Dew Point: -6°   Wind: 4mph
Humidity: 78%   Direction: 60°ENE
Pressure: 30.71"   Gusts: NA
Location:  55.64°N, 51.82°E
Report Text: UWKE 240400Z 06002MPS CAVOK M18/M21 Q1040 NOSIG RMK QFE763/101703090070
Loading
Personal Weather Stations






























Interactive Weather Map New forecast layout! Learn more

10-Day Weather Forecast

Advertisements
Track Severe Weather on mobile